Alanreed, Texas
Current Conditions -  °F | °C
As of 5:15 AM on Tuesday 21 Oct 2014 (Local Time) from KPPA Reporting Station
Clear Clear  
Wind Chill: 56°   Ceiling: Unl
Heat Index: 56°   Visibility: 10mi
Dew Point: 52°   Wind: 8mph
Humidity: 87%   Direction: 220°SW
Pressure: 30.11"   Gusts: NA
Location:  35.21°N, 100.74°W
Report Text: KPPA 211015Z AUTO 22007KT 10SM CLR 13/11 A3011 RMK AO2 T01310110 PNO
Loading
Personal Weather Stations






























Interactive Weather Map New forecast layout! Learn more

10-Day Weather Forecast

Advertisements
Track Severe Weather on mobile